Time;durP1;ratioP1;P1;durP2;ratioP2;P2;SDS_P1;SDS_P2;PMS_P1;PMS_P2;Temp;Humidity;BMP_temperature;BMP_pressure;BME280_temperature;BME280_humidity;BME280_pressure;Samples;Min_cycle;Max_cycle;Signal;HPM_P1;HPM_P2
2022/07/31 00:00:19;;;;;;;5.85;3.33;;;;;;;;;;4998456;28;92269;-70
2022/07/31 00:02:45;;;;;;;7.40;3.05;;;;;;;;;;4995653;28;92481;-70
2022/07/31 00:05:12;;;;;;;3.40;3.05;;;;;;;;;;4994957;28;93554;-70
2022/07/31 00:07:38;;;;;;;6.20;2.92;;;;;;;;;;4994188;28;93465;-70
2022/07/31 00:10:05;;;;;;;6.47;3.60;;;;;;;;;;4995553;28;92412;-70
2022/07/31 00:12:33;;;;;;;10.05;3.58;;;;;;;;;;4995489;28;93263;-70
2022/07/31 00:15:04;;;;;;;9.10;3.38;;;;;;;;;;4995429;28;93547;-70
2022/07/31 00:17:31;;;;;;;4.32;3.10;;;;;;;;;;4995328;28;92598;-70
2022/07/31 00:19:57;;;;;;;5.85;3.10;;;;;;;;;;4992510;28;94739;-70
2022/07/31 00:22:23;;;;;;;7.45;2.97;;;;;;;;;;4997786;28;94249;-70
2022/07/31 00:24:50;;;;;;;5.97;3.58;;;;;;;;;;4994993;28;94981;-70
2022/07/31 00:27:16;;;;;;;3.72;3.03;;;;;;;;;;4994096;28;93328;-70
2022/07/31 00:29:42;;;;;;;3.47;3.17;;;;;;;;;;4993712;28;92635;-70
2022/07/31 00:32:10;;;;;;;5.88;3.33;;;;;;;;;;4995463;28;92969;-70
2022/07/31 00:34:36;;;;;;;8.88;3.60;;;;;;;;;;5026512;27;93729;-70
2022/07/31 00:37:03;;;;;;;4.57;3.60;;;;;;;;;;4993946;28;91946;-70
2022/07/31 00:39:31;;;;;;;9.05;3.35;;;;;;;;;;4994969;28;92449;-70
2022/07/31 00:41:57;;;;;;;5.20;3.80;;;;;;;;;;4994377;28;93486;-70
2022/07/31 00:44:24;;;;;;;8.20;3.80;;;;;;;;;;4996697;28;94881;-70
2022/07/31 00:46:51;;;;;;;9.13;3.80;;;;;;;;;;4992253;28;95080;-70
2022/07/31 00:49:18;;;;;;;4.05;3.60;;;;;;;;;;5025452;28;92422;-70
2022/07/31 00:51:45;;;;;;;7.50;3.42;;;;;;;;;;4994812;28;92734;-70
2022/07/31 00:54:11;;;;;;;5.78;4.15;;;;;;;;;;4993934;28;93006;-70
2022/07/31 00:56:48;;;;;;;8.05;3.80;;;;;;;;;;4993222;28;92335;-70
2022/07/31 00:59:14;;;;;;;5.45;3.85;;;;;;;;;;4993578;28;93073;-70
2022/07/31 01:01:40;;;;;;;10.57;3.90;;;;;;;;;;4993752;28;93520;-70
2022/07/31 01:04:07;;;;;;;10.57;3.90;;;;;;;;;;4994531;28;92442;-70
2022/07/31 01:06:41;;;;;;;4.15;3.70;;;;;;;;;;4997650;28;92768;-70
2022/07/31 01:09:08;;;;;;;6.30;3.53;;;;;;;;;;4991292;28;95132;-70
2022/07/31 01:11:43;;;;;;;5.47;3.17;;;;;;;;;;4995078;28;95355;-70
2022/07/31 01:14:10;;;;;;;3.88;3.55;;;;;;;;;;4994663;28;93195;-70
2022/07/31 01:16:41;;;;;;;3.92;3.42;;;;;;;;;;4993470;28;92415;-70
2022/07/31 01:19:25;;;;;;;5.97;3.78;;;;;;;;;;5028495;27;92891;-70
2022/07/31 01:22:26;;;;;;;10.15;5.65;;;;;;;;;;4995678;28;94475;-70
2022/07/31 01:25:00;;;;;;;4.78;4.30;;;;;;;;;;4997595;28;93464;-70
2022/07/31 01:27:51;;;;;;;7.95;4.47;;;;;;;;;;4998399;28;92778;-70
2022/07/31 01:30:18;;;;;;;8.50;4.43;;;;;;;;;;4998678;28;94986;-70
2022/07/31 01:32:48;;;;;;;5.60;3.65;;;;;;;;;;5029771;28;94406;-70
2022/07/31 01:35:24;;;;;;;6.90;3.80;;;;;;;;;;4994585;28;96295;-70
2022/07/31 01:37:51;;;;;;;8.00;3.65;;;;;;;;;;4994837;28;92858;-71
2022/07/31 01:40:30;;;;;;;4.53;3.47;;;;;;;;;;4996113;28;95695;-72
2022/07/31 01:43:07;;;;;;;5.30;3.90;;;;;;;;;;5029720;28;93211;-70
2022/07/31 01:45:35;;;;;;;5.57;3.78;;;;;;;;;;4997903;28;92376;-70
2022/07/31 01:48:02;;;;;;;6.60;3.67;;;;;;;;;;4995803;28;94854;-70
2022/07/31 01:50:35;;;;;;;6.38;3.70;;;;;;;;;;4998444;28;93132;-70
2022/07/31 01:53:12;;;;;;;12.52;3.47;;;;;;;;;;4998257;28;92713;-70
2022/07/31 01:55:40;;;;;;;7.97;4.00;;;;;;;;;;4995452;28;95473;-70
2022/07/31 01:58:27;;;;;;;5.47;4.22;;;;;;;;;;4995285;28;92885;-70
2022/07/31 02:01:02;;;;;;;4.47;3.65;;;;;;;;;;5027836;28;94821;-70
2022/07/31 02:03:29;;;;;;;6.32;3.90;;;;;;;;;;4996040;28;95021;-70
2022/07/31 02:06:16;;;;;;;6.68;4.07;;;;;;;;;;5029202;28;92449;-70
2022/07/31 02:08:44;;;;;;;14.25;4.10;;;;;;;;;;4997566;28;93038;-71
2022/07/31 02:11:13;;;;;;;4.20;3.90;;;;;;;;;;4994987;28;93668;-70
2022/07/31 02:13:39;;;;;;;3.83;3.47;;;;;;;;;;5000361;28;92293;-70
2022/07/31 02:16:06;;;;;;;6.97;3.92;;;;;;;;;;4995483;28;93377;-70
2022/07/31 02:18:34;;;;;;;8.93;4.13;;;;;;;;;;5029054;28;91785;-70
2022/07/31 02:21:13;;;;;;;5.72;3.60;;;;;;;;;;5029630;28;94550;-70
2022/07/31 02:23:40;;;;;;;4.63;4.20;;;;;;;;;;4996980;28;93216;-70
2022/07/31 02:26:07;;;;;;;6.65;3.80;;;;;;;;;;4993574;28;94875;-70
2022/07/31 02:28:35;;;;;;;6.03;3.30;;;;;;;;;;4995498;28;97129;-70
2022/07/31 02:31:02;;;;;;;6.68;3.70;;;;;;;;;;4995418;28;93198;-71
2022/07/31 02:33:30;;;;;;;5.03;3.35;;;;;;;;;;5028026;28;92546;-70
2022/07/31 02:35:59;;;;;;;5.13;3.42;;;;;;;;;;4998240;28;92408;-70
2022/07/31 02:38:28;;;;;;;6.75;4.35;;;;;;;;;;5028919;28;92519;-70
2022/07/31 02:40:56;;;;;;;8.50;4.10;;;;;;;;;;4993893;28;94879;-70
2022/07/31 02:43:24;;;;;;;9.98;4.60;;;;;;;;;;4996025;28;92768;-70
2022/07/31 02:45:51;;;;;;;6.57;3.85;;;;;;;;;;4995001;28;92504;-70
2022/07/31 02:48:17;;;;;;;12.55;5.03;;;;;;;;;;4995547;28;92728;-70
2022/07/31 02:50:47;;;;;;;7.75;4.68;;;;;;;;;;4992983;28;95364;-70
2022/07/31 02:53:15;;;;;;;5.22;4.57;;;;;;;;;;4995169;28;92529;-70
2022/07/31 02:55:43;;;;;;;10.95;4.35;;;;;;;;;;4993865;28;94088;-71
2022/07/31 02:58:09;;;;;;;5.47;4.18;;;;;;;;;;4999305;28;93126;-70
2022/07/31 03:00:36;;;;;;;5.93;4.28;;;;;;;;;;4993871;28;93247;-70
2022/07/31 03:03:02;;;;;;;7.28;4.15;;;;;;;;;;4994626;28;93100;-69
2022/07/31 03:05:30;;;;;;;7.05;4.30;;;;;;;;;;4994980;28;92476;-70
2022/07/31 03:07:57;;;;;;;4.20;3.95;;;;;;;;;;5028255;28;92703;-70
2022/07/31 03:10:23;;;;;;;5.10;3.65;;;;;;;;;;4995154;28;95766;-70
2022/07/31 03:13:04;;;;;;;13.30;4.65;;;;;;;;;;4995429;28;92560;-70
2022/07/31 03:15:32;;;;;;;5.28;4.72;;;;;;;;;;4994470;28;94761;-70
2022/07/31 03:17:58;;;;;;;6.40;5.00;;;;;;;;;;4994885;28;94019;-70
2022/07/31 03:20:44;;;;;;;5.28;4.40;;;;;;;;;;4997729;28;92387;-70
2022/07/31 03:23:11;;;;;;;7.43;5.00;;;;;;;;;;4995463;28;93239;-70
2022/07/31 03:25:48;;;;;;;6.25;5.50;;;;;;;;;;4994063;28;92512;-70
2022/07/31 03:28:18;;;;;;;10.07;5.50;;;;;;;;;;4994492;28;94804;-70
2022/07/31 03:30:45;;;;;;;10.50;5.60;;;;;;;;;;4993348;28;92516;-70
2022/07/31 03:33:11;;;;;;;6.50;4.75;;;;;;;;;;4994099;28;91779;-70
2022/07/31 03:35:38;;;;;;;7.90;7.10;;;;;;;;;;4993815;28;92441;-70
2022/07/31 03:38:10;;;;;;;11.07;6.70;;;;;;;;;;4994141;28;95138;-70
2022/07/31 03:40:59;;;;;;;11.80;7.05;;;;;;;;;;4992178;28;95013;-70
2022/07/31 03:43:27;;;;;;;7.97;7.18;;;;;;;;;;4995411;28;95614;-70
2022/07/31 03:46:09;;;;;;;11.25;7.25;;;;;;;;;;5027856;28;92484;-70
2022/07/31 03:48:35;;;;;;;9.57;7.50;;;;;;;;;;4993288;28;95128;-70
2022/07/31 03:51:02;;;;;;;7.57;6.90;;;;;;;;;;4993386;28;94168;-70
2022/07/31 03:53:30;;;;;;;13.98;7.28;;;;;;;;;;4994098;28;92406;-70
2022/07/31 03:55:57;;;;;;;14.18;7.35;;;;;;;;;;4993974;28;93788;-70
2022/07/31 03:58:24;;;;;;;11.40;7.18;;;;;;;;;;4994929;28;92312;-70
2022/07/31 04:00:53;;;;;;;19.95;7.30;;;;;;;;;;5027661;28;92535;-70
2022/07/31 04:03:20;;;;;;;13.93;6.82;;;;;;;;;;5030007;27;93065;-69
2022/07/31 04:05:53;;;;;;;12.13;6.03;;;;;;;;;;4991387;28;95040;-70
2022/07/31 04:08:20;;;;;;;11.57;7.35;;;;;;;;;;4995002;28;95360;-70
2022/07/31 04:10:46;;;;;;;10.02;6.68;;;;;;;;;;4992934;28;93193;-70
2022/07/31 04:13:16;;;;;;;15.88;7.05;;;;;;;;;;4993911;28;92483;-71
2022/07/31 04:15:43;;;;;;;8.75;5.75;;;;;;;;;;4994038;28;92493;-71
2022/07/31 04:18:09;;;;;;;13.15;6.53;;;;;;;;;;4993065;28;93151;-70
2022/07/31 04:20:39;;;;;;;9.40;6.40;;;;;;;;;;4994008;28;92515;-70
2022/07/31 04:23:06;;;;;;;7.85;6.43;;;;;;;;;;4994455;28;93138;-70
2022/07/31 04:25:51;;;;;;;10.65;5.45;;;;;;;;;;4996766;28;92446;-70
2022/07/31 04:28:37;;;;;;;15.30;6.45;;;;;;;;;;4995047;28;92512;-70
2022/07/31 04:31:04;;;;;;;12.50;6.35;;;;;;;;;;4993467;28;95540;-69
2022/07/31 04:33:34;;;;;;;14.25;5.85;;;;;;;;;;4993411;28;92583;-70
2022/07/31 04:36:12;;;;;;;13.73;6.13;;;;;;;;;;4993609;28;94976;-69
2022/07/31 04:38:56;;;;;;;10.52;6.13;;;;;;;;;;4992527;28;93675;-70
2022/07/31 04:41:23;;;;;;;8.95;5.88;;;;;;;;;;5027294;28;92561;-70
2022/07/31 04:43:50;;;;;;;10.38;4.95;;;;;;;;;;4993330;28;92861;-70
2022/07/31 04:46:16;;;;;;;8.98;6.00;;;;;;;;;;5025842;28;93060;-70
2022/07/31 04:48:44;;;;;;;13.75;5.68;;;;;;;;;;5030221;27;91699;-70
2022/07/31 04:51:18;;;;;;;12.25;6.00;;;;;;;;;;4993422;28;93145;-70
2022/07/31 04:53:45;;;;;;;16.27;5.95;;;;;;;;;;5027923;27;92870;-70
2022/07/31 04:58:58;;;;;;;7.70;5.47;;;;;;;;;;4996483;28;95013;-70
2022/07/31 05:01:24;;;;;;;6.93;5.85;;;;;;;;;;4997697;28;92482;-70
2022/07/31 05:03:52;;;;;;;10.82;5.80;;;;;;;;;;4996431;28;95226;-70
2022/07/31 05:06:18;;;;;;;8.48;5.13;;;;;;;;;;5030560;28;93137;-70
2022/07/31 05:08:44;;;;;;;10.27;5.38;;;;;;;;;;4997734;28;92571;-70
2022/07/31 05:11:23;;;;;;;12.50;5.10;;;;;;;;;;4999891;28;92910;-70
2022/07/31 05:13:50;;;;;;;10.73;5.57;;;;;;;;;;4996701;28;91573;-70
2022/07/31 05:16:17;;;;;;;9.52;5.82;;;;;;;;;;4997403;28;92818;-70
2022/07/31 05:18:44;;;;;;;9.23;5.70;;;;;;;;;;5029514;28;93261;-70
2022/07/31 05:21:43;;;;;;;10.25;6.65;;;;;;;;;;4993542;28;94907;-70
2022/07/31 05:24:41;;;;;;;17.17;7.00;;;;;;;;;;4997171;28;95973;-70
2022/07/31 05:27:10;;;;;;;8.27;6.25;;;;;;;;;;5029687;28;95717;-70
2022/07/31 05:29:39;;;;;;;7.45;6.60;;;;;;;;;;4995353;28;92718;-70
2022/07/31 05:32:06;;;;;;;13.05;6.80;;;;;;;;;;4997751;28;92774;-70
2022/07/31 05:34:33;;;;;;;8.65;7.60;;;;;;;;;;5032524;28;92866;-70
2022/07/31 05:37:00;;;;;;;10.43;7.70;;;;;;;;;;4995606;28;93014;-70
2022/07/31 05:39:29;;;;;;;11.52;7.82;;;;;;;;;;5030335;28;92543;-70
2022/07/31 05:42:14;;;;;;;14.00;7.38;;;;;;;;;;4995476;28;93733;-70
2022/07/31 05:45:00;;;;;;;16.95;8.23;;;;;;;;;;4997183;28;93299;-70
2022/07/31 05:47:27;;;;;;;8.32;6.90;;;;;;;;;;4994096;28;97718;-70
2022/07/31 05:50:07;;;;;;;10.57;7.45;;;;;;;;;;4995442;28;92581;-70
2022/07/31 05:52:33;;;;;;;13.60;7.60;;;;;;;;;;4995906;28;93203;-70
2022/07/31 05:55:32;;;;;;;7.95;7.15;;;;;;;;;;4984238;28;92819;-70
2022/07/31 05:58:15;;;;;;;12.55;8.07;;;;;;;;;;4997554;28;92845;-70
2022/07/31 06:00:43;;;;;;;10.20;7.65;;;;;;;;;;4994889;28;95063;-70
2022/07/31 06:03:11;;;;;;;20.40;8.15;;;;;;;;;;4997889;28;92559;-70
2022/07/31 06:05:53;;;;;;;13.25;7.75;;;;;;;;;;4995219;28;93057;-70
2022/07/31 06:08:20;;;;;;;12.95;7.63;;;;;;;;;;4995269;28;94099;-70
2022/07/31 06:10:49;;;;;;;9.15;7.15;;;;;;;;;;4994936;28;92450;-70
2022/07/31 06:13:16;;;;;;;11.95;7.82;;;;;;;;;;4996229;28;95561;-70
2022/07/31 06:15:42;;;;;;;11.20;7.45;;;;;;;;;;4995653;28;92854;-70
2022/07/31 06:18:15;;;;;;;10.65;7.50;;;;;;;;;;4999684;28;92510;-70
2022/07/31 06:20:41;;;;;;;13.25;7.68;;;;;;;;;;4995288;28;93346;-70
2022/07/31 06:23:09;;;;;;;9.45;8.25;;;;;;;;;;4995511;28;92425;-70
2022/07/31 06:26:04;;;;;;;9.15;7.80;;;;;;;;;;4994760;28;93080;-70
2022/07/31 06:28:31;;;;;;;9.52;7.32;;;;;;;;;;5028784;28;95423;-70
2022/07/31 06:31:16;;;;;;;13.75;7.63;;;;;;;;;;4995944;28;91669;-70
2022/07/31 06:33:42;;;;;;;9.38;8.45;;;;;;;;;;4995700;28;92397;-70
2022/07/31 06:36:15;;;;;;;10.80;7.70;;;;;;;;;;4994998;28;93138;-70
2022/07/31 06:38:55;;;;;;;9.93;8.30;;;;;;;;;;5026037;28;95771;-70
2022/07/31 06:41:46;;;;;;;11.75;8.93;;;;;;;;;;4999496;28;94946;-70
2022/07/31 06:44:28;;;;;;;12.27;8.80;;;;;;;;;;4994632;28;92423;-70
2022/07/31 06:47:26;;;;;;;11.52;9.07;;;;;;;;;;4994687;28;92871;-71
2022/07/31 06:50:11;;;;;;;10.20;8.98;;;;;;;;;;4994361;28;92695;-70
2022/07/31 06:52:44;;;;;;;17.05;10.93;;;;;;;;;;4994581;28;92913;-70
2022/07/31 06:55:11;;;;;;;12.95;9.35;;;;;;;;;;4994475;28;95194;-70
2022/07/31 06:57:38;;;;;;;14.15;9.50;;;;;;;;;;4995664;28;92479;-70
2022/07/31 07:00:05;;;;;;;11.07;10.00;;;;;;;;;;4994497;28;92647;-70
2022/07/31 07:02:47;;;;;;;15.40;10.32;;;;;;;;;;4994221;28;93244;-70
2022/07/31 07:05:14;;;;;;;12.65;10.25;;;;;;;;;;4996600;28;95651;-70
2022/07/31 07:07:40;;;;;;;18.60;11.98;;;;;;;;;;4993205;28;95185;-70
2022/07/31 07:10:08;;;;;;;15.10;11.32;;;;;;;;;;4993971;28;93299;-71
2022/07/31 07:12:52;;;;;;;23.65;12.32;;;;;;;;;;4995929;28;92315;-70
2022/07/31 07:15:20;;;;;;;16.08;12.05;;;;;;;;;;5027089;28;93911;-69
2022/07/31 07:17:46;;;;;;;16.73;11.82;;;;;;;;;;4993330;28;94981;-70
2022/07/31 07:20:18;;;;;;;;;;;;;;;;;;4995100;28;92524;-70
2022/07/31 07:22:45;;;;;;;18.25;11.35;;;;;;;;;;4995863;28;123735;-70
2022/07/31 07:25:19;;;;;;;15.38;11.90;;;;;;;;;;4994256;28;93221;-70
2022/07/31 07:27:46;;;;;;;20.77;12.35;;;;;;;;;;4980117;28;92547;-70
2022/07/31 07:30:13;;;;;;;12.05;9.45;;;;;;;;;;4993030;28;96485;-70
2022/07/31 07:32:40;;;;;;;17.90;12.70;;;;;;;;;;4994695;28;93465;-71
2022/07/31 07:35:08;;;;;;;25.13;13.60;;;;;;;;;;4993960;28;93852;-70
2022/07/31 07:37:51;;;;;;;17.42;13.15;;;;;;;;;;4993782;28;92609;-71
2022/07/31 07:40:19;;;;;;;21.92;14.15;;;;;;;;;;4994645;28;92501;-70
2022/07/31 07:42:45;;;;;;;23.35;15.27;;;;;;;;;;4993179;28;93032;-70
2022/07/31 07:45:12;;;;;;;27.92;16.58;;;;;;;;;;4995259;28;93074;-70
2022/07/31 07:47:39;;;;;;;28.15;17.67;;;;;;;;;;4994262;28;91733;-71
2022/07/31 07:50:26;;;;;;;20.30;15.48;;;;;;;;;;4996321;28;93064;-70
2022/07/31 07:53:18;;;;;;;24.58;16.90;;;;;;;;;;4990014;28;92495;-70
2022/07/31 07:56:02;;;;;;;23.92;16.35;;;;;;;;;;4993070;28;94671;-70
2022/07/31 07:59:04;;;;;;;24.08;17.13;;;;;;;;;;4995360;28;92950;-70
2022/07/31 08:02:18;;;;;;;24.95;16.67;;;;;;;;;;4994185;28;93273;-70
2022/07/31 08:04:47;;;;;;;23.17;16.15;;;;;;;;;;5026440;28;92651;-71
2022/07/31 08:07:13;;;;;;;22.35;15.88;;;;;;;;;;4994553;28;95154;-70
2022/07/31 08:09:40;;;;;;;19.98;16.08;;;;;;;;;;4992628;28;92808;-71
2022/07/31 08:12:26;;;;;;;20.48;15.75;;;;;;;;;;4997095;28;92273;-71
2022/07/31 08:15:05;;;;;;;29.90;15.52;;;;;;;;;;4995502;28;91567;-71
2022/07/31 08:17:50;;;;;;;20.08;15.15;;;;;;;;;;4991907;28;92406;-71
2022/07/31 08:20:16;;;;;;;22.73;15.20;;;;;;;;;;4993809;28;93951;-70
2022/07/31 08:22:43;;;;;;;26.90;15.77;;;;;;;;;;5025095;28;94877;-70
2022/07/31 08:25:10;;;;;;;20.38;15.90;;;;;;;;;;4993276;28;96364;-70
2022/07/31 08:27:42;;;;;;;19.17;13.95;;;;;;;;;;5027092;28;95095;-70
2022/07/31 08:30:08;;;;;;;26.67;17.33;;;;;;;;;;4997239;28;92623;-71
2022/07/31 08:32:37;;;;;;;26.85;17.67;;;;;;;;;;4996543;28;95648;-71
2022/07/31 08:35:15;;;;;;;34.80;17.65;;;;;;;;;;5000838;28;96245;-70
2022/07/31 08:37:42;;;;;;;32.40;19.52;;;;;;;;;;4997245;28;93098;-71
2022/07/31 08:40:30;;;;;;;32.33;18.98;;;;;;;;;;5031281;28;94882;-71
2022/07/31 08:43:08;;;;;;;29.98;19.15;;;;;;;;;;4996961;28;93179;-70
2022/07/31 08:45:55;;;;;;;32.05;20.63;;;;;;;;;;5029565;28;95625;-70
2022/07/31 08:48:27;;;;;;;30.90;20.10;;;;;;;;;;4994614;28;97897;-71
2022/07/31 08:50:53;;;;;;;32.65;21.95;;;;;;;;;;5030287;28;92441;-70
2022/07/31 08:53:41;;;;;;;33.75;21.40;;;;;;;;;;4995685;28;92482;-70
2022/07/31 08:56:15;;;;;;;29.38;20.98;;;;;;;;;;4997197;28;95715;-70
2022/07/31 08:58:42;;;;;;;30.20;20.55;;;;;;;;;;5001418;28;92391;-71
2022/07/31 09:01:12;;;;;;;29.70;20.98;;;;;;;;;;4995979;28;94316;-70
2022/07/31 09:03:40;;;;;;;30.77;20.08;;;;;;;;;;4996242;28;92420;-70
2022/07/31 09:06:10;;;;;;;28.42;21.52;;;;;;;;;;4996268;28;95334;-71
2022/07/31 09:08:36;;;;;;;30.33;20.10;;;;;;;;;;4997768;28;93670;-71
2022/07/31 09:11:06;;;;;;;27.83;20.80;;;;;;;;;;4997120;28;92449;-71
2022/07/31 09:13:52;;;;;;;34.65;20.80;;;;;;;;;;4994062;28;95042;-71
2022/07/31 09:16:46;;;;;;;36.90;22.33;;;;;;;;;;4996557;28;93457;-70
2022/07/31 09:19:13;;;;;;;31.67;22.03;;;;;;;;;;4996847;28;92520;-70
2022/07/31 09:22:28;;;;;;;29.83;21.85;;;;;;;;;;4998712;28;93904;-69
2022/07/31 09:25:07;;;;;;;29.80;21.45;;;;;;;;;;4996241;28;92600;-69
2022/07/31 09:27:33;;;;;;;31.50;22.42;;;;;;;;;;4995748;28;93920;-70
2022/07/31 09:30:01;;;;;;;32.30;22.55;;;;;;;;;;4995769;28;95939;-70
2022/07/31 09:32:53;;;;;;;30.63;21.88;;;;;;;;;;4996446;28;91689;-70
2022/07/31 09:35:38;;;;;;;30.55;22.73;;;;;;;;;;5028306;28;92686;-70
2022/07/31 09:38:07;;;;;;;28.50;20.85;;;;;;;;;;4996041;28;94013;-70
2022/07/31 09:41:12;;;;;;;29.50;20.83;;;;;;;;;;4994993;28;94849;-70
2022/07/31 09:44:10;;;;;;;32.38;23.88;;;;;;;;;;4995680;28;97913;-70
2022/07/31 09:46:39;;;;;;;38.88;25.20;;;;;;;;;;4998260;28;95469;-70
2022/07/31 09:49:07;;;;;;;34.97;25.05;;;;;;;;;;4994727;28;95402;-70
2022/07/31 09:51:41;;;;;;;28.70;22.90;;;;;;;;;;4995632;28;92490;-70
2022/07/31 09:54:25;;;;;;;26.35;21.85;;;;;;;;;;4996426;28;92480;-70
2022/07/31 09:56:57;;;;;;;25.75;22.63;;;;;;;;;;4995441;28;92621;-70
2022/07/31 09:59:30;;;;;;;38.55;24.13;;;;;;;;;;4996040;28;92460;-70
2022/07/31 10:01:57;;;;;;;31.73;24.17;;;;;;;;;;4995729;28;92500;-70
2022/07/31 10:04:24;;;;;;;30.00;22.40;;;;;;;;;;4996397;28;93015;-70
2022/07/31 10:06:50;;;;;;;29.85;21.73;;;;;;;;;;4993536;28;98207;-70
2022/07/31 10:09:18;;;;;;;24.23;20.63;;;;;;;;;;4998831;28;92529;-70
2022/07/31 10:12:16;;;;;;;25.70;20.77;;;;;;;;;;4986760;28;92853;-70
2022/07/31 10:14:43;;;;;;;27.38;19.85;;;;;;;;;;4995106;28;92520;-70
2022/07/31 10:17:12;;;;;;;18.98;16.30;;;;;;;;;;5028355;28;93013;-69
2022/07/31 10:19:52;;;;;;;19.85;15.65;;;;;;;;;;4995324;28;93283;-70
2022/07/31 10:22:50;;;;;;;17.80;15.27;;;;;;;;;;4959046;28;92501;-69
2022/07/31 10:25:23;;;;;;;16.85;14.77;;;;;;;;;;4995175;28;93203;-70
2022/07/31 10:27:52;;;;;;;18.73;15.98;;;;;;;;;;4995324;28;92411;-70
2022/07/31 10:30:20;;;;;;;18.40;16.17;;;;;;;;;;4998343;28;92238;-69
2022/07/31 10:32:53;;;;;;;19.75;16.55;;;;;;;;;;4992569;28;95723;-71
2022/07/31 10:35:26;;;;;;;24.50;17.92;;;;;;;;;;4993778;28;92380;-71
2022/07/31 10:38:10;;;;;;;19.58;17.10;;;;;;;;;;4995804;28;92998;-70
2022/07/31 10:41:02;;;;;;;24.60;18.55;;;;;;;;;;4996367;28;93021;-70
2022/07/31 10:43:35;;;;;;;21.15;18.90;;;;;;;;;;4995457;28;92492;-70
2022/07/31 10:46:13;;;;;;;20.92;18.67;;;;;;;;;;4994110;28;92954;-71
2022/07/31 10:49:00;;;;;;;21.13;18.85;;;;;;;;;;4984247;28;93575;-71
2022/07/31 10:51:52;;;;;;;;;;;;;;;;;;4993302;28;91763;-70
2022/07/31 10:54:38;;;;;;;24.55;18.73;;;;;;;;;;4999172;28;92444;-70
2022/07/31 10:57:23;;;;;;;23.70;18.98;;;;;;;;;;4994272;28;92453;-70
2022/07/31 11:00:17;;;;;;;28.42;20.75;;;;;;;;;;4993507;28;95295;-70
2022/07/31 11:03:12;;;;;;;26.40;19.60;;;;;;;;;;4995407;28;92657;-70
2022/07/31 11:05:58;;;;;;;25.00;20.00;;;;;;;;;;4995367;28;92642;-70
2022/07/31 11:08:47;;;;;;;20.73;18.38;;;;;;;;;;4994892;28;92495;-70
2022/07/31 11:11:35;;;;;;;23.58;18.33;;;;;;;;;;4994905;28;92679;-71
2022/07/31 11:14:30;;;;;;;18.00;15.43;;;;;;;;;;4994863;28;92505;-71
2022/07/31 11:17:16;;;;;;;19.88;16.20;;;;;;;;;;4993523;28;92457;-70
2022/07/31 11:20:22;;;;;;;19.25;17.30;;;;;;;;;;4997166;28;92043;-70
2022/07/31 11:23:07;;;;;;;18.13;16.40;;;;;;;;;;4995375;28;92277;-70
2022/07/31 11:25:34;;;;;;;19.95;16.95;;;;;;;;;;4995633;28;93722;-70
2022/07/31 11:28:23;;;;;;;19.73;17.67;;;;;;;;;;4993552;28;94847;-70
2022/07/31 11:30:53;;;;;;;21.60;16.67;;;;;;;;;;4995074;28;95432;-70
2022/07/31 11:33:33;;;;;;;25.73;18.42;;;;;;;;;;4995955;28;93256;-70
2022/07/31 11:36:15;;;;;;;18.40;16.48;;;;;;;;;;4995245;28;92987;-70
2022/07/31 11:38:43;;;;;;;20.48;16.88;;;;;;;;;;4995255;28;93542;-70
2022/07/31 11:41:13;;;;;;;17.83;15.77;;;;;;;;;;4994560;28;93212;-70
2022/07/31 11:43:43;;;;;;;17.77;15.25;;;;;;;;;;4997991;28;92479;-70
2022/07/31 11:46:10;;;;;;;19.17;15.82;;;;;;;;;;4995900;28;92994;-70
2022/07/31 11:48:37;;;;;;;17.95;16.02;;;;;;;;;;4993860;28;92568;-70
2022/07/31 11:51:15;;;;;;;18.02;15.73;;;;;;;;;;4995749;28;94356;-71
2022/07/31 11:53:44;;;;;;;16.40;14.77;;;;;;;;;;4993505;28;94925;-70
2022/07/31 11:56:10;;;;;;;17.10;15.27;;;;;;;;;;4994692;28;92441;-71
2022/07/31 11:58:40;;;;;;;17.20;15.50;;;;;;;;;;4994202;28;92300;-69
2022/07/31 12:01:06;;;;;;;16.48;14.55;;;;;;;;;;4994964;28;93284;-70
2022/07/31 12:03:34;;;;;;;15.73;12.48;;;;;;;;;;4992732;28;92681;-70
2022/07/31 12:06:00;;;;;;;21.15;13.88;;;;;;;;;;4997984;28;93931;-70
2022/07/31 12:08:28;;;;;;;14.93;13.48;;;;;;;;;;4995341;28;92486;-70
2022/07/31 12:10:55;;;;;;;15.07;12.90;;;;;;;;;;4994277;28;93199;-70
2022/07/31 12:13:23;;;;;;;19.25;12.43;;;;;;;;;;4994627;28;93736;-70
2022/07/31 12:15:53;;;;;;;14.13;12.38;;;;;;;;;;4994965;28;92516;-70
2022/07/31 12:18:21;;;;;;;14.03;11.57;;;;;;;;;;4991538;28;94833;-70
2022/07/31 12:21:05;;;;;;;12.98;10.63;;;;;;;;;;4993908;28;94345;-69
2022/07/31 12:23:58;;;;;;;12.35;10.38;;;;;;;;;;4993374;28;92401;-70
2022/07/31 12:26:24;;;;;;;;;;;;;;;;;;4991431;28;95441;-70
2022/07/31 12:29:03;;;;;;;13.35;10.75;;;;;;;;;;4999214;28;94122;-70
2022/07/31 12:31:30;;;;;;;16.58;10.50;;;;;;;;;;4993529;28;93230;-69
2022/07/31 12:33:56;;;;;;;12.52;10.63;;;;;;;;;;4994015;28;93661;-70
2022/07/31 12:36:23;;;;;;;16.80;10.38;;;;;;;;;;4994813;28;91737;-70
2022/07/31 12:38:59;;;;;;;18.45;10.75;;;;;;;;;;4993415;28;92556;-70
2022/07/31 12:41:26;;;;;;;14.30;10.32;;;;;;;;;;4994306;28;93479;-70
2022/07/31 12:43:53;;;;;;;11.23;10.05;;;;;;;;;;4992326;28;94912;-70
2022/07/31 12:46:34;;;;;;;12.25;8.63;;;;;;;;;;4993830;28;96883;-70
2022/07/31 12:49:01;;;;;;;12.63;9.10;;;;;;;;;;4997862;28;94166;-70
2022/07/31 12:51:27;;;;;;;14.88;8.80;;;;;;;;;;4994392;28;94251;-70
2022/07/31 12:54:12;;;;;;;11.15;8.10;;;;;;;;;;4995004;28;92357;-70
2022/07/31 12:56:39;;;;;;;19.77;7.65;;;;;;;;;;4994893;28;93010;-71
2022/07/31 12:59:06;;;;;;;12.57;7.25;;;;;;;;;;4994701;28;93850;-71
2022/07/31 13:01:33;;;;;;;15.13;7.00;;;;;;;;;;4996054;28;93459;-71
2022/07/31 13:03:59;;;;;;;10.93;6.50;;;;;;;;;;4994807;28;92439;-71
2022/07/31 13:06:28;;;;;;;10.45;7.03;;;;;;;;;;4994173;28;93760;-71
2022/07/31 13:08:55;;;;;;;8.07;6.53;;;;;;;;;;4993301;28;96419;-71
2022/07/31 13:11:24;;;;;;;8.50;6.43;;;;;;;;;;4998545;28;92450;-71
2022/07/31 13:13:51;;;;;;;7.50;5.10;;;;;;;;;;4993679;28;93300;-71
2022/07/31 13:16:17;;;;;;;7.78;5.28;;;;;;;;;;4998385;28;92409;-71
2022/07/31 13:18:44;;;;;;;8.57;4.72;;;;;;;;;;4997883;28;93938;-71
2022/07/31 13:21:10;;;;;;;8.20;5.00;;;;;;;;;;4997817;28;94173;-71
2022/07/31 13:23:36;;;;;;;7.75;4.45;;;;;;;;;;4997796;28;92464;-72
2022/07/31 13:26:05;;;;;;;9.95;4.18;;;;;;;;;;4999067;28;94125;-71
2022/07/31 13:28:32;;;;;;;5.13;4.35;;;;;;;;;;4997463;28;93453;-71
2022/07/31 13:30:58;;;;;;;9.57;4.93;;;;;;;;;;4998130;28;92421;-71
2022/07/31 13:33:24;;;;;;;5.88;4.00;;;;;;;;;;4999401;28;94738;-71
2022/07/31 13:35:51;;;;;;;5.47;3.60;;;;;;;;;;4999224;27;92401;-71
2022/07/31 13:38:17;;;;;;;7.15;4.13;;;;;;;;;;4998297;28;92436;-71
2022/07/31 13:43:28;;;;;;;4.93;3.53;;;;;;;;;;4998639;28;92340;-71
2022/07/31 13:45:55;;;;;;;6.22;3.10;;;;;;;;;;4997584;28;94468;-71
2022/07/31 13:48:21;;;;;;;5.55;3.63;;;;;;;;;;4996051;28;94291;-71
2022/07/31 13:50:47;;;;;;;3.95;3.30;;;;;;;;;;4997704;28;91679;-70
2022/07/31 13:53:14;;;;;;;7.57;4.13;;;;;;;;;;4997884;28;92535;-70
2022/07/31 13:55:40;;;;;;;6.93;5.10;;;;;;;;;;4999488;28;94236;-70
2022/07/31 13:58:07;;;;;;;8.27;4.55;;;;;;;;;;4996299;28;94860;-70
2022/07/31 14:00:36;;;;;;;6.72;5.03;;;;;;;;;;4998088;28;93582;-70
2022/07/31 14:03:02;;;;;;;6.47;5.25;;;;;;;;;;4997788;28;92511;-70
2022/07/31 14:05:28;;;;;;;9.27;4.63;;;;;;;;;;4997933;28;93127;-70
2022/07/31 14:08:02;;;;;;;7.28;4.97;;;;;;;;;;4998083;28;93232;-71
2022/07/31 14:10:50;;;;;;;7.03;5.07;;;;;;;;;;4998293;27;92668;-71
2022/07/31 14:13:17;;;;;;;6.78;5.00;;;;;;;;;;4997995;28;93021;-70
2022/07/31 14:15:44;;;;;;;6.57;4.35;;;;;;;;;;4996199;28;92802;-71
2022/07/31 14:18:11;;;;;;;11.98;5.07;;;;;;;;;;5000309;28;92437;-71
2022/07/31 14:20:37;;;;;;;9.13;4.30;;;;;;;;;;4998564;27;93584;-71
2022/07/31 14:23:06;;;;;;;9.07;4.57;;;;;;;;;;4995684;28;95457;-70
2022/07/31 14:25:37;;;;;;;6.32;4.53;;;;;;;;;;4997140;28;95408;-71
2022/07/31 14:28:04;;;;;;;9.10;3.83;;;;;;;;;;4996768;28;93091;-70
2022/07/31 14:30:33;;;;;;;9.15;4.47;;;;;;;;;;4996647;28;92778;-71
2022/07/31 14:33:00;;;;;;;6.65;4.10;;;;;;;;;;4998182;28;95089;-71
2022/07/31 14:35:27;;;;;;;10.20;4.70;;;;;;;;;;4997323;28;93441;-71
2022/07/31 14:37:53;;;;;;;11.75;4.63;;;;;;;;;;4995719;28;93514;-69
2022/07/31 14:40:19;;;;;;;8.45;5.40;;;;;;;;;;5000654;28;93874;-69
2022/07/31 14:42:48;;;;;;;11.80;5.88;;;;;;;;;;4996695;28;92443;-71
2022/07/31 14:45:14;;;;;;;6.35;4.78;;;;;;;;;;4996225;28;93244;-71
2022/07/31 14:47:45;;;;;;;11.85;4.93;;;;;;;;;;4992939;28;95505;-71
2022/07/31 14:50:11;;;;;;;9.90;4.90;;;;;;;;;;4997373;28;92916;-71
2022/07/31 14:52:44;;;;;;;5.57;4.90;;;;;;;;;;4995801;28;92910;-71
2022/07/31 14:55:11;;;;;;;7.55;5.15;;;;;;;;;;4996656;28;92336;-72
2022/07/31 14:57:37;;;;;;;8.80;5.30;;;;;;;;;;4994852;28;92492;-72
2022/07/31 15:00:11;;;;;;;8.80;4.55;;;;;;;;;;4999645;27;92990;-70
2022/07/31 15:02:38;;;;;;;10.00;4.70;;;;;;;;;;4996469;28;92309;-70
2022/07/31 15:05:07;;;;;;;6.28;4.80;;;;;;;;;;4996805;28;92823;-71
2022/07/31 15:07:56;;;;;;;9.98;4.97;;;;;;;;;;4995803;28;92419;-71